createdAt,value
2018-10-11T00:00:03.286Z,74.27
2018-10-11T00:02:32.135Z,74.14
2018-10-11T00:05:01.493Z,74.04
2018-10-11T00:07:30.317Z,73.92
2018-10-11T00:09:59.380Z,73.55
2018-10-11T00:12:28.363Z,74.13
2018-10-11T00:14:57.771Z,73.92
2018-10-11T00:17:27.504Z,74.23
2018-10-11T00:19:56.216Z,73.58
2018-10-11T00:22:25.404Z,73.65
2018-10-11T00:24:54.217Z,74.05
2018-10-11T00:27:22.930Z,73.95
2018-10-11T00:29:51.686Z,74.49
2018-10-11T00:32:20.688Z,74.73
2018-10-11T00:34:49.799Z,74.35
2018-10-11T00:37:18.654Z,74.82
2018-10-11T00:39:47.411Z,74.28
2018-10-11T00:42:16.128Z,74.57
2018-10-11T00:44:44.883Z,74.27
2018-10-11T00:47:13.542Z,74.51
2018-10-11T00:49:42.280Z,74.95
2018-10-11T00:52:11.304Z,74.89
2018-10-11T00:54:40.448Z,75.20
2018-10-11T00:57:09.159Z,74.65
2018-10-11T00:59:37.852Z,75.37
2018-10-11T01:02:06.837Z,74.71
2018-10-11T01:04:35.627Z,74.70
2018-10-11T01:07:04.351Z,74.82
2018-10-11T01:09:33.029Z,75.24
2018-10-11T01:12:01.781Z,75.01
2018-10-11T01:14:30.474Z,75.02
2018-10-11T01:16:59.370Z,75.32
2018-10-11T01:19:28.351Z,75.67
2018-10-11T01:21:57.574Z,75.74
2018-10-11T01:24:27.136Z,75.29
2018-10-11T01:26:56.057Z,76.00
2018-10-11T01:29:25.181Z,75.90
2018-10-11T01:31:54.625Z,75.62
2018-10-11T01:34:23.314Z,76.08
2018-10-11T01:36:52.507Z,76.14
2018-10-11T01:39:21.635Z,75.70
2018-10-11T01:41:50.825Z,75.94
2018-10-11T01:44:19.610Z,75.77
2018-10-11T01:46:48.682Z,76.28
2018-10-11T01:49:17.499Z,75.74
2018-10-11T01:51:46.632Z,76.14
2018-10-11T01:54:15.700Z,76.16
2018-10-11T01:56:45.081Z,76.18
2018-10-11T01:59:13.850Z,76.01
2018-10-11T02:01:42.865Z,76.04
2018-10-11T02:04:11.632Z,75.98
2018-10-11T02:06:40.333Z,75.94
2018-10-11T02:09:09.496Z,75.92
2018-10-11T02:11:38.418Z,75.55
2018-10-11T02:14:07.259Z,76.18
2018-10-11T02:16:36.274Z,75.93
2018-10-11T02:19:05.471Z,75.49
2018-10-11T02:21:34.178Z,75.30
2018-10-11T02:24:02.879Z,75.98
2018-10-11T02:26:31.579Z,75.96
2018-10-11T02:29:00.338Z,75.80
2018-10-11T02:31:31.092Z,75.90
2018-10-11T02:33:59.787Z,75.37
2018-10-11T02:36:28.927Z,75.49
2018-10-11T02:38:58.222Z,75.37
2018-10-11T02:41:26.926Z,75.77
2018-10-11T02:43:56.159Z,76.00
2018-10-11T02:46:24.857Z,75.59
2018-10-11T02:48:53.617Z,76.15
2018-10-11T02:51:22.618Z,75.71
2018-10-11T02:53:51.875Z,75.72
2018-10-11T02:56:22.450Z,75.80
2018-10-11T02:59:02.137Z,76.03
2018-10-11T03:01:31.356Z,76.43
2018-10-11T03:04:04.240Z,76.35
2018-10-11T03:06:34.701Z,76.68
2018-10-11T03:09:04.727Z,76.35
2018-10-11T03:11:33.540Z,76.47
2018-10-11T03:14:02.369Z,75.87
2018-10-11T03:16:31.066Z,76.03
2018-10-11T03:19:00.270Z,75.37
2018-10-11T03:21:28.987Z,75.35
2018-10-11T03:23:57.978Z,75.81
2018-10-11T03:26:26.714Z,75.69
2018-10-11T03:28:55.438Z,75.54
2018-10-11T03:31:24.469Z,75.63
2018-10-11T03:33:53.521Z,74.92
2018-10-11T03:36:22.457Z,75.49
2018-10-11T03:38:51.423Z,75.74
2018-10-11T03:41:20.146Z,75.48
2018-10-11T03:43:48.863Z,74.87
2018-10-11T03:46:17.798Z,74.84
2018-10-11T03:48:46.503Z,74.67
2018-10-11T03:51:15.323Z,75.32
2018-10-11T03:53:44.635Z,74.72
2018-10-11T03:56:13.931Z,75.40
2018-10-11T03:58:42.650Z,75.34
2018-10-11T04:01:11.425Z,75.34
2018-10-11T04:03:40.206Z,74.72
2018-10-11T04:06:09.002Z,75.27
2018-10-11T04:08:38.282Z,75.31
2018-10-11T04:11:06.990Z,75.43
2018-10-11T04:13:35.673Z,75.48
2018-10-11T04:16:04.713Z,75.15
2018-10-11T04:18:33.514Z,75.44
2018-10-11T04:21:02.218Z,75.62
2018-10-11T04:23:32.329Z,75.35
2018-10-11T04:26:01.492Z,75.00
2018-10-11T04:28:30.734Z,75.62
2018-10-11T04:31:01.224Z,75.36
2018-10-11T04:33:30.548Z,75.08
2018-10-11T04:35:59.803Z,75.35
2018-10-11T04:38:28.972Z,74.79
2018-10-11T04:40:58.151Z,75.53
2018-10-11T04:43:26.890Z,75.63
2018-10-11T04:45:56.297Z,75.65
2018-10-11T04:48:26.100Z,75.08
2018-10-11T04:50:55.648Z,75.13
2018-10-11T04:53:24.410Z,75.32
2018-10-11T04:55:53.806Z,75.82
2018-10-11T04:58:22.609Z,75.39
2018-10-11T05:00:51.341Z,75.20
2018-10-11T05:03:21.611Z,75.39
2018-10-11T05:05:50.293Z,74.74
2018-10-11T05:08:19.390Z,75.03
2018-10-11T05:10:48.702Z,74.54
2018-10-11T05:13:18.201Z,74.62
2018-10-11T05:15:47.029Z,74.66
2018-10-11T05:18:17.834Z,74.73
2018-10-11T05:20:46.799Z,74.58
2018-10-11T05:23:15.929Z,74.35
2018-10-11T05:25:44.772Z,73.90
2018-10-11T05:28:13.815Z,74.07
2018-10-11T05:30:45.167Z,74.04
2018-10-11T05:33:15.089Z,73.72
2018-10-11T05:35:44.376Z,73.77
2018-10-11T05:38:13.199Z,73.94
2018-10-11T05:40:42.313Z,73.99
2018-10-11T05:43:12.686Z,73.69
2018-10-11T05:45:41.825Z,73.68
2018-10-11T05:48:10.633Z,73.97
2018-10-11T05:50:39.668Z,74.19
2018-10-11T05:53:08.014Z,73.73
2018-10-11T05:55:36.807Z,73.63
2018-10-11T05:58:05.714Z,73.17
2018-10-11T06:00:34.916Z,72.90
2018-10-11T06:03:04.314Z,72.80
2018-10-11T06:05:33.437Z,72.63
2018-10-11T06:08:03.045Z,72.55
2018-10-11T06:10:33.999Z,72.32
2018-10-11T06:13:04.105Z,72.02
2018-10-11T06:15:32.839Z,71.99
2018-10-11T06:18:02.391Z,71.68
2018-10-11T06:20:31.262Z,72.22
2018-10-11T06:23:00.465Z,71.39
2018-10-11T06:25:30.085Z,71.94
2018-10-11T06:27:59.203Z,72.23
2018-10-11T06:30:29.005Z,71.83
2018-10-11T06:32:57.912Z,72.40
2018-10-11T06:35:27.538Z,71.76
2018-10-11T06:37:57.010Z,72.21
2018-10-11T06:40:26.200Z,72.17
2018-10-11T06:42:55.029Z,72.32
2018-10-11T06:45:24.062Z,72.58
2018-10-11T06:47:57.567Z,72.05
2018-10-11T06:50:26.668Z,71.80
2018-10-11T06:52:55.687Z,71.51
2018-10-11T06:55:24.415Z,71.49
2018-10-11T06:57:53.430Z,71.21
2018-10-11T07:00:22.441Z,71.77
2018-10-11T07:02:51.563Z,71.38
2018-10-11T07:05:20.313Z,70.83
2018-10-11T07:07:49.356Z,70.17
2018-10-11T07:10:18.520Z,70.49
2018-10-11T07:12:47.196Z,69.87
2018-10-11T07:15:16.333Z,70.84
2018-10-11T07:17:45.109Z,70.46
2018-10-11T07:20:14.079Z,70.58
2018-10-11T07:22:42.902Z,69.68
2018-10-11T07:25:11.607Z,69.20
2018-10-11T07:27:40.783Z,69.13
2018-10-11T07:30:09.772Z,68.81
2018-10-11T07:32:38.537Z,68.58
2018-10-11T07:35:07.864Z,68.62
2018-10-11T07:37:37.204Z,68.17
2018-10-11T07:40:06.061Z,67.35
2018-10-11T07:42:35.158Z,67.17
2018-10-11T07:45:04.228Z,66.79
2018-10-11T07:47:32.973Z,66.27
2018-10-11T07:50:02.092Z,64.91
2018-10-11T07:52:30.918Z,64.79
2018-10-11T07:54:59.711Z,65.01
2018-10-11T07:57:28.572Z,64.89
2018-10-11T07:59:57.354Z,64.09
2018-10-11T08:02:26.062Z,63.70
2018-10-11T08:04:54.776Z,63.77
2018-10-11T08:07:23.617Z,63.90
2018-10-11T08:09:52.411Z,63.06
2018-10-11T08:12:21.454Z,62.80
2018-10-11T08:14:50.532Z,63.00
2018-10-11T08:17:20.005Z,62.89
2018-10-11T08:19:48.572Z,62.16
2018-10-11T08:22:17.643Z,61.81
2018-10-11T08:24:46.442Z,61.88
2018-10-11T08:27:16.117Z,61.61
2018-10-11T08:29:45.214Z,60.67
2018-10-11T08:32:14.035Z,60.12
2018-10-11T08:34:42.755Z,60.33
2018-10-11T08:37:11.512Z,59.94
2018-10-11T08:39:40.634Z,59.12
2018-10-11T08:42:09.767Z,59.11
2018-10-11T08:44:39.038Z,59.26
2018-10-11T08:47:08.100Z,59.19
2018-10-11T08:49:36.863Z,58.57
2018-10-11T08:52:06.183Z,57.37
2018-10-11T08:54:40.171Z,56.52
2018-10-11T08:57:10.561Z,55.93
2018-10-11T08:59:40.399Z,55.27
2018-10-11T09:02:09.153Z,54.58
2018-10-11T09:04:38.191Z,54.63
2018-10-11T09:07:07.089Z,54.21
2018-10-11T09:09:35.904Z,54.68
2018-10-11T09:12:04.979Z,54.25
2018-10-11T09:14:33.727Z,54.52
2018-10-11T09:17:02.504Z,54.28
2018-10-11T09:19:31.305Z,54.03
2018-10-11T09:22:00.809Z,53.43
2018-10-11T09:24:29.661Z,53.71
2018-10-11T09:26:58.590Z,52.46
2018-10-11T09:29:27.316Z,50.89
2018-10-11T09:31:56.175Z,50.34
2018-10-11T09:34:24.941Z,49.97
2018-10-11T09:36:53.739Z,49.53
2018-10-11T09:39:22.963Z,48.89
2018-10-11T09:41:52.528Z,48.16
2018-10-11T09:44:21.615Z,47.88
2018-10-11T09:46:50.405Z,48.00
2018-10-11T09:49:19.244Z,47.00
2018-10-11T09:51:48.261Z,46.47
2018-10-11T09:54:17.314Z,46.35
2018-10-11T09:57:21.828Z,46.50
2018-10-11T09:59:51.577Z,46.58
2018-10-11T10:02:21.154Z,46.25
2018-10-11T10:04:51.368Z,45.43
2018-10-11T10:07:20.773Z,45.00
2018-10-11T10:09:49.712Z,44.29
2018-10-11T10:12:18.687Z,43.63
2018-10-11T10:14:48.133Z,43.74
2018-10-11T10:17:17.126Z,43.85
2018-10-11T10:19:46.272Z,43.87
2018-10-11T10:22:14.965Z,45.14
2018-10-11T10:24:43.682Z,44.71
2018-10-11T10:27:12.932Z,44.54
2018-10-11T10:29:42.229Z,45.25
2018-10-11T10:32:11.315Z,46.05
2018-10-11T10:34:40.681Z,45.85
2018-10-11T10:37:09.384Z,46.58
2018-10-11T10:39:38.493Z,45.99
2018-10-11T10:42:07.869Z,46.28
2018-10-11T10:44:37.488Z,45.96
2018-10-11T10:47:06.520Z,45.47
2018-10-11T10:49:35.291Z,45.54
2018-10-11T10:52:04.004Z,45.60
2018-10-11T10:54:34.213Z,45.33
2018-10-11T10:57:03.862Z,45.71
2018-10-11T10:59:32.923Z,45.08
2018-10-11T11:02:01.596Z,45.30
2018-10-11T11:04:30.614Z,45.02
2018-10-11T11:06:59.597Z,44.88
2018-10-11T11:09:28.595Z,44.70
2018-10-11T11:11:57.658Z,44.75
2018-10-11T11:14:26.788Z,44.42
2018-10-11T11:16:55.460Z,43.85
2018-10-11T11:19:24.195Z,42.53
2018-10-11T11:21:53.842Z,42.37
2018-10-11T11:24:22.713Z,41.93
2018-10-11T11:26:51.470Z,41.53
2018-10-11T11:29:20.257Z,40.53
2018-10-11T11:31:48.889Z,39.81
2018-10-11T11:34:18.303Z,39.57
2018-10-11T11:36:47.059Z,39.44
2018-10-11T11:39:16.150Z,40.71
2018-10-11T11:41:45.224Z,40.66
2018-10-11T11:44:13.946Z,40.89
2018-10-11T11:46:42.639Z,40.20
2018-10-11T11:49:11.690Z,41.15
2018-10-11T11:51:40.560Z,40.98
2018-10-11T11:54:25.750Z,40.90
2018-10-11T11:56:54.976Z,41.32
2018-10-11T11:59:23.937Z,40.54
2018-10-11T12:01:52.918Z,41.13
2018-10-11T12:04:22.362Z,42.08
2018-10-11T12:06:51.026Z,41.75
2018-10-11T12:09:20.132Z,41.70
2018-10-11T12:11:49.146Z,42.05
2018-10-11T12:14:17.958Z,41.30
2018-10-11T12:16:46.785Z,40.80
2018-10-11T12:19:15.539Z,41.62
2018-10-11T12:21:44.587Z,41.45
2018-10-11T12:24:13.394Z,42.16
2018-10-11T12:26:42.569Z,43.25
2018-10-11T12:29:11.282Z,42.48
2018-10-11T12:34:07.666Z,42.50
2018-10-11T12:36:37.044Z,42.50
2018-10-11T12:39:07.711Z,43.30
2018-10-11T12:41:36.531Z,42.80
2018-10-11T12:44:05.312Z,41.89
2018-10-11T12:46:34.751Z,42.05
2018-10-11T12:49:03.366Z,42.40
2018-10-11T12:51:32.152Z,42.83
2018-10-11T12:54:01.191Z,42.73
2018-10-11T12:56:30.359Z,41.94
2018-10-11T12:58:59.151Z,41.66
2018-10-11T13:01:27.943Z,42.48
2018-10-11T13:03:56.766Z,42.79
2018-10-11T13:06:25.510Z,43.03
2018-10-11T13:08:54.416Z,42.91
2018-10-11T13:11:23.449Z,42.58
2018-10-11T13:13:53.072Z,41.88
2018-10-11T13:16:21.641Z,41.99
2018-10-11T13:18:50.466Z,43.13
2018-10-11T13:21:19.642Z,42.74
2018-10-11T13:23:48.311Z,42.94
2018-10-11T13:26:17.065Z,42.54
2018-10-11T13:28:46.128Z,42.72
2018-10-11T13:31:15.105Z,42.68
2018-10-11T13:33:43.993Z,44.03
2018-10-11T13:36:13.038Z,42.92
2018-10-11T13:38:42.994Z,43.61
2018-10-11T13:41:12.522Z,43.50
2018-10-11T13:43:43.809Z,43.55
2018-10-11T13:46:13.987Z,43.45
2018-10-11T13:48:43.419Z,43.40
2018-10-11T13:51:13.993Z,43.40
2018-10-11T13:53:46.822Z,43.27
2018-10-11T13:56:13.425Z,42.76
2018-10-11T13:58:42.786Z,43.08
2018-10-11T14:01:13.263Z,42.94
2018-10-11T14:03:42.185Z,42.88
2018-10-11T14:08:41.384Z,42.17
2018-10-11T14:11:10.832Z,42.59
2018-10-11T14:13:42.130Z,42.44
2018-10-11T14:16:14.098Z,41.67
2018-10-11T14:18:43.834Z,41.37
2018-10-11T14:21:13.218Z,41.23
2018-10-11T14:23:42.615Z,41.22
2018-10-11T14:26:13.146Z,41.32
2018-10-11T14:28:42.346Z,41.34
2018-10-11T14:31:11.628Z,41.48
2018-10-11T14:33:40.901Z,41.62
2018-10-11T14:36:11.139Z,40.75
2018-10-11T14:38:40.627Z,40.76
2018-10-11T14:41:09.576Z,40.82
2018-10-11T14:43:39.945Z,41.21
2018-10-11T14:46:10.650Z,41.44
2018-10-11T14:48:39.373Z,40.37
2018-10-11T14:51:08.954Z,40.02
2018-10-11T14:53:37.768Z,39.86
2018-10-11T14:56:06.571Z,40.73
2018-10-11T14:58:35.403Z,39.89
2018-10-11T15:01:04.500Z,40.75
2018-10-11T15:03:34.561Z,40.49
2018-10-11T15:06:04.071Z,40.44
2018-10-11T15:08:34.714Z,39.87
2018-10-11T15:11:05.006Z,40.63
2018-10-11T15:13:34.873Z,39.71
2018-10-11T15:16:03.762Z,39.95
2018-10-11T15:18:32.423Z,40.57
2018-10-11T15:21:01.259Z,40.77
2018-10-11T15:23:29.923Z,40.32
2018-10-11T15:25:58.906Z,40.40
2018-10-11T15:28:27.597Z,40.62
2018-10-11T15:30:56.339Z,40.13
2018-10-11T15:33:25.029Z,40.06
2018-10-11T15:35:53.783Z,41.47
2018-10-11T15:38:22.891Z,40.43
2018-10-11T15:40:51.892Z,39.95
2018-10-11T15:43:20.894Z,40.69
2018-10-11T15:45:49.985Z,40.07
2018-10-11T15:48:19.018Z,41.14
2018-10-11T15:50:48.053Z,40.88
2018-10-11T15:53:17.639Z,41.46
2018-10-11T15:55:46.806Z,41.24
2018-10-11T15:58:15.625Z,42.09
2018-10-11T16:00:44.521Z,42.38
2018-10-11T16:03:13.544Z,42.88
2018-10-11T16:05:42.788Z,42.55
2018-10-11T16:08:11.593Z,43.09
2018-10-11T16:10:40.304Z,43.44
2018-10-11T16:13:09.087Z,43.46
2018-10-11T16:15:38.222Z,44.75
2018-10-11T16:18:07.028Z,44.71
2018-10-11T16:20:36.022Z,44.85
2018-10-11T16:23:05.065Z,45.28
2018-10-11T16:25:33.746Z,45.49
2018-10-11T16:28:02.866Z,45.74
2018-10-11T16:30:31.634Z,46.33
2018-10-11T16:33:00.730Z,46.66
2018-10-11T16:35:30.778Z,46.31
2018-10-11T16:37:59.514Z,46.86
2018-10-11T16:40:28.576Z,46.58
2018-10-11T16:42:58.097Z,45.58
2018-10-11T16:45:26.932Z,46.20
2018-10-11T16:47:55.715Z,46.26
2018-10-11T16:50:24.439Z,46.99
2018-10-11T16:52:53.273Z,46.34
2018-10-11T16:55:22.108Z,46.79
2018-10-11T16:57:51.156Z,46.79
2018-10-11T17:00:19.895Z,47.00
2018-10-11T17:02:49.004Z,47.49
2018-10-11T17:05:18.368Z,47.86
2018-10-11T17:07:47.092Z,48.84
2018-10-11T17:10:16.005Z,48.40
2018-10-11T17:12:45.041Z,49.38
2018-10-11T17:15:14.204Z,48.94
2018-10-11T17:17:44.095Z,49.52
2018-10-11T17:20:13.213Z,49.47
2018-10-11T17:22:42.000Z,49.77
2018-10-11T17:25:10.795Z,49.68
2018-10-11T17:27:39.990Z,49.71
2018-10-11T17:30:09.175Z,50.28
2018-10-11T17:32:38.480Z,50.22
2018-10-11T17:35:07.319Z,50.63
2018-10-11T17:37:36.275Z,50.66
2018-10-11T17:40:05.044Z,49.97
2018-10-11T17:42:34.747Z,49.77
2018-10-11T17:45:04.314Z,50.23
2018-10-11T17:47:34.865Z,50.11
2018-10-11T17:50:03.979Z,49.50
2018-10-11T17:52:32.858Z,50.08
2018-10-11T17:55:02.079Z,50.23
2018-10-11T17:57:31.139Z,50.43
2018-10-11T18:00:00.029Z,50.21
2018-10-11T18:02:28.890Z,50.81
2018-10-11T18:04:57.815Z,50.70
2018-10-11T18:07:26.793Z,51.31
2018-10-11T18:09:56.532Z,51.68
2018-10-11T18:12:25.548Z,51.43
2018-10-11T18:14:54.805Z,51.69
2018-10-11T18:17:24.042Z,52.36
2018-10-11T18:19:54.666Z,51.95
2018-10-11T18:22:23.488Z,52.22
2018-10-11T18:24:52.613Z,52.94
2018-10-11T18:27:21.401Z,52.41
2018-10-11T18:29:52.137Z,53.19
2018-10-11T18:32:21.386Z,53.41
2018-10-11T18:34:50.455Z,53.28
2018-10-11T18:37:19.715Z,53.00
2018-10-11T18:39:48.931Z,53.18
2018-10-11T18:42:18.005Z,53.05
2018-10-11T18:44:48.355Z,51.94
2018-10-11T18:47:17.304Z,51.54
2018-10-11T18:49:46.141Z,52.21
2018-10-11T18:52:15.362Z,52.08
2018-10-11T18:54:44.387Z,52.19
2018-10-11T18:57:14.320Z,52.51
2018-10-11T18:59:44.483Z,52.11
2018-10-11T19:02:13.659Z,52.82
2018-10-11T19:04:42.607Z,53.23
2018-10-11T19:07:11.581Z,53.39
2018-10-11T19:09:40.597Z,53.19
2018-10-11T19:12:10.863Z,53.58
2018-10-11T19:14:39.656Z,53.59
2018-10-11T19:17:08.542Z,53.88
2018-10-11T19:19:37.299Z,54.30
2018-10-11T19:22:06.161Z,54.31
2018-10-11T19:24:35.011Z,54.56
2018-10-11T19:27:04.004Z,54.50
2018-10-11T19:29:32.896Z,54.80
2018-10-11T19:32:01.863Z,54.92
2018-10-11T19:34:30.993Z,54.61
2018-10-11T19:37:00.696Z,55.16
2018-10-11T19:39:29.522Z,55.43
2018-10-11T19:41:58.279Z,55.30
2018-10-11T19:44:27.121Z,55.23
2018-10-11T19:46:55.981Z,55.17
2018-10-11T19:49:25.369Z,54.87
2018-10-11T19:51:54.118Z,55.52
2018-10-11T19:54:22.882Z,54.92
2018-10-11T19:56:51.935Z,55.50
2018-10-11T19:59:21.748Z,54.94
2018-10-11T20:01:51.574Z,55.67
2018-10-11T20:04:20.932Z,55.73
2018-10-11T20:06:50.172Z,55.70
2018-10-11T20:09:18.940Z,56.33
2018-10-11T20:11:48.207Z,56.62
2018-10-11T20:14:17.042Z,56.75
2018-10-11T20:16:45.936Z,56.23
2018-10-11T20:19:16.404Z,55.96
2018-10-11T20:21:45.524Z,56.33
2018-10-11T20:24:14.368Z,56.24
2018-10-11T20:26:43.396Z,56.88
2018-10-11T20:29:12.178Z,56.50
2018-10-11T20:31:41.220Z,55.82
2018-10-11T20:34:09.981Z,56.38
2018-10-11T20:36:38.996Z,55.72
2018-10-11T20:39:09.360Z,56.54
2018-10-11T20:41:38.808Z,56.35
2018-10-11T20:44:07.871Z,55.45
2018-10-11T20:46:36.930Z,55.64
2018-10-11T20:49:06.147Z,55.03
2018-10-11T20:51:35.122Z,55.87
2018-10-11T20:54:04.213Z,54.93
2018-10-11T20:56:34.094Z,54.81
2018-10-11T20:59:04.470Z,54.88
2018-10-11T21:01:33.608Z,55.32
2018-10-11T21:04:03.390Z,55.52
2018-10-11T21:06:32.494Z,55.20
2018-10-11T21:09:01.774Z,54.86
2018-10-11T21:11:30.644Z,55.03
2018-10-11T21:13:59.400Z,54.32
2018-10-11T21:16:28.646Z,54.59
2018-10-11T21:18:57.484Z,54.75
2018-10-11T21:21:26.543Z,54.49
2018-10-11T21:23:55.680Z,54.15
2018-10-11T21:26:24.522Z,54.25
2018-10-11T21:28:53.583Z,54.41
2018-10-11T21:31:22.622Z,54.55
2018-10-11T21:33:51.296Z,54.11
2018-10-11T21:36:20.852Z,54.22
2018-10-11T21:38:50.202Z,54.48
2018-10-11T21:41:19.194Z,54.97
2018-10-11T21:43:49.026Z,55.40
2018-10-11T21:46:19.092Z,54.67
2018-10-11T21:48:49.151Z,54.95
2018-10-11T21:51:18.623Z,54.95
2018-10-11T21:53:49.130Z,54.84
2018-10-11T21:56:18.838Z,54.34
2018-10-11T21:58:48.570Z,54.65
2018-10-11T22:01:20.173Z,54.79
2018-10-11T22:03:53.816Z,54.38
2018-10-11T22:06:23.696Z,54.48
2018-10-11T22:08:52.639Z,55.12
2018-10-11T22:11:22.990Z,54.88
2018-10-11T22:13:53.030Z,54.92
2018-10-11T22:16:22.856Z,54.83
2018-10-11T22:18:52.380Z,54.47
2018-10-11T22:21:22.775Z,55.05
2018-10-11T22:23:52.512Z,54.38
2018-10-11T22:26:22.052Z,54.87
2018-10-11T22:28:51.865Z,55.15
2018-10-11T22:31:22.342Z,55.25
2018-10-11T22:33:51.817Z,54.90
2018-10-11T22:36:22.380Z,55.14
2018-10-11T22:38:51.523Z,54.99
2018-10-11T22:41:20.762Z,54.81
2018-10-11T22:43:50.506Z,55.07
2018-10-11T22:46:20.911Z,54.67
2018-10-11T22:48:50.842Z,54.71
2018-10-11T22:51:20.687Z,55.27
2018-10-11T22:53:52.046Z,54.71
2018-10-11T22:56:22.296Z,55.34
2018-10-11T22:58:52.379Z,55.42
2018-10-11T23:01:21.200Z,54.97
2018-10-11T23:03:50.278Z,55.62
2018-10-11T23:06:20.531Z,55.72
2018-10-11T23:08:49.387Z,55.69
2018-10-11T23:11:18.224Z,55.72
2018-10-11T23:13:47.161Z,55.68
2018-10-11T23:16:16.538Z,55.38
2018-10-11T23:18:45.980Z,55.51
2018-10-11T23:21:14.875Z,55.22
2018-10-11T23:23:45.018Z,56.17
2018-10-11T23:26:13.969Z,56.05
2018-10-11T23:28:43.068Z,55.96
2018-10-11T23:31:12.918Z,55.76
2018-10-11T23:33:43.506Z,56.15
2018-10-11T23:36:12.363Z,55.66
2018-10-11T23:38:41.858Z,56.43
2018-10-11T23:41:11.127Z,56.40
2018-10-11T23:43:40.750Z,56.10
2018-10-11T23:46:11.302Z,56.64
2018-10-11T23:48:40.387Z,56.52
2018-10-11T23:51:10.018Z,56.24
2018-10-11T23:53:39.963Z,56.30
2018-10-11T23:56:10.177Z,57.00
2018-10-11T23:58:39.560Z,56.27
